LFOB/BVA METAR and TAF weather

Enter ICAO airport designator
Station Type Date Time Source
LFOB METAR 2019/04/20 22:30 UTC NOAA

LFOB 202230Z AUTO 01011KT CAVOK 15/07 Q1023 NOSIG


Station Type Date Time Source
LFOB Decoded METAR 2019/04/20 22:30 UTC NOAA

Beauvais, France (LFOB) 49-28N 002-07E 111M
Apr 20, 2019 - 06:30 PM EDT / 2019.04.20 2230 UTC
Wind: from the N (010 degrees) at 13 MPH (11 KT):0
Visibility: greater than 7 mile(s):0
Temperature: 59 F (15 C)
Dew Point: 44 F (7 C)
Relative Humidity: 58%
Pressure (altimeter): 30.21 in. Hg (1023 hPa)
ob: LFOB 202230Z AUTO 01011KT CAVOK 15/07 Q1023 NOSIG
cycle: 22

Station Type Date Time Source
LFOB TAF 2019/04/20 18:21 UTC NOAA

TAF LFOB 201700Z 2018/2118 04010KT CAVOK

Example: see airport list